LERS/REU METAR and TAF weather

Enter ICAO airport designator
Station Type Date Time Source
LERS METAR 2019/06/18 14:30 UTC NOAA

LERS 181430Z 13006KT 060V180 9999 FEW020 25/19 Q1015


Station Type Date Time Source
LERS Decoded METAR 2019/06/18 14:30 UTC NOAA

Reus / Aeropuerto, Spain (LERS) 41-09N 001-10E 76M
Jun 18, 2019 - 10:30 AM EDT / 2019.06.18 1430 UTC
Wind: from the SE (130 degrees) at 7 MPH (6 KT) (direction variable):0
Visibility: greater than 7 mile(s):0
Sky conditions: mostly clear
Temperature: 77 F (25 C)
Dew Point: 66 F (19 C)
Relative Humidity: 69%
Pressure (altimeter): 29.97 in. Hg (1015 hPa)
ob: LERS 181430Z 13006KT 060V180 9999 FEW020 25/19 Q1015
cycle: 14

Station Type Date Time Source
LERS TAF 2019/06/18 15:27 UTC NOAA

TAF TAF LERS 181400Z 1815/1915 18008KT 9999 FEW030 TX27/1912Z TN16/1905Z
BECMG 1819/1822 VRB03KT
BECMG 1907/1910 15007KT

Example: see airport list